Time;durP1;ratioP1;P1;durP2;ratioP2;P2;SDS_P1;SDS_P2;PMS_P1;PMS_P2;Temp;Humidity;BMP_temperature;BMP_pressure;BME280_temperature;BME280_humidity;BME280_pressure;Samples;Min_cycle;Max_cycle;Signal;HPM_P1;HPM_P2
2022/06/09 00:00:43;;;;;;;;;;;;;;;-142.75;100.00;76373.44;5034544;28;19921;-71
2022/06/09 00:03:12;;;;;;;;;;;;;;;-142.75;100.00;76377.38;5034765;28;19924;-71
2022/06/09 00:05:37;;;;;;;;;;;;;;;-142.75;100.00;76381.31;5034319;28;19917;-70
2022/06/09 00:08:04;;;;;;;;;;;;;;;-142.75;100.00;76393.13;5033959;28;19924;-70
2022/06/09 00:10:31;;;;;;;;;;;;;;;-142.75;100.00;76387.22;5034406;28;19921;-70
2022/06/09 00:12:57;;;;;;;;;;;;;;;-142.75;100.00;76393.13;5016441;28;19917;-71
2022/06/09 00:15:22;;;;;;;;;;;;;;;-142.75;100.00;76397.06;5034251;28;19925;-71
2022/06/09 00:17:47;;;;;;;;;;;;;;;-142.75;100.00;76408.88;5034022;28;19917;-71
2022/06/09 00:20:13;;;;;;;;;;;;;;;-142.75;100.00;76410.84;5034190;28;19917;-70
2022/06/09 00:22:39;;;;;;;;;;;;;;;-142.75;100.00;76408.88;5034011;28;20321;-71
2022/06/09 00:25:05;;;;;;;;;;;;;;;-142.75;100.00;76414.78;5034076;28;19924;-70
2022/06/09 00:27:30;;;;;;;;;;;;;;;-142.75;100.00;76416.75;5033923;28;19995;-72
2022/06/09 00:29:55;;;;;;;;;;;;;;;-142.75;100.00;76408.88;5033880;28;19952;-72
2022/06/09 00:32:20;;;;;;;;;;;;;;;-142.75;100.00;76416.75;5033124;28;19960;-70
2022/06/09 00:34:46;;;;;;;;;;;;;;;-142.75;100.00;76424.63;5033810;28;19944;-70
2022/06/09 00:37:11;;;;;;;;;;;;;;;-142.75;100.00;76426.59;5033749;28;19967;-70
2022/06/09 00:39:36;;;;;;;;;;;;;;;-142.75;100.00;76428.56;5033554;28;19917;-70
2022/06/09 00:42:01;;;;;;;;;;;;;;;-142.75;100.00;76436.44;5016676;28;20368;-68
2022/06/09 00:44:28;;;;;;;;;;;;;;;-142.75;100.00;76434.47;5014091;28;19925;-71
2022/06/09 00:47:08;;;;;;;;;;;;;;;-142.75;100.00;76448.25;5014046;28;20442;-70
2022/06/09 00:49:36;;;;;;;;;;;;;;;-142.75;100.00;76448.25;5013568;28;19918;-70
2022/06/09 00:52:02;;;;;;;;;;;;;;;-142.75;100.00;76446.28;5013843;28;20387;-71
2022/06/09 00:54:39;;;;;;;;;;;;;;;-142.75;100.00;76444.31;5013896;28;19917;-72
2022/06/09 00:57:04;;;;;;;;;;;;;;;-142.75;100.00;76454.16;5013749;28;19917;-71
2022/06/09 00:59:31;;;;;;;;;;;;;;;-142.75;100.00;76460.06;5013488;28;19924;-71
2022/06/09 01:01:58;;;;;;;;;;;;;;;-142.75;100.00;76458.09;5013701;28;20000;-71
2022/06/09 01:04:24;;;;;;;;;;;;;;;-142.75;100.00;76464.00;5013597;28;19968;-71
2022/06/09 01:06:54;;;;;;;;;;;;;;;-142.75;100.00;76458.09;5013397;28;19937;-70
2022/06/09 01:09:22;;;;;;;;;;;;;;;-142.75;100.00;76456.13;5027232;28;19980;-70
2022/06/09 01:11:48;;;;;;;;;;;;;;;-142.75;100.00;76456.13;5033355;28;19917;-70
2022/06/09 01:14:15;;;;;;;;;;;;;;;-142.75;100.00;76454.16;5033149;28;20014;-71
2022/06/09 01:16:59;;;;;;;;;;;;;;;-142.75;100.00;76456.13;5033139;28;19917;-70
2022/06/09 01:19:43;;;;;;;;;;;;;;;-142.75;100.00;76448.25;5032761;28;20378;-71
2022/06/09 01:22:26;;;;;;;;;;;;;;;-142.75;100.00;76444.31;5033177;28;19917;-71
2022/06/09 01:25:01;;;;;;;;;;;;;;;-142.75;100.00;76448.25;5033035;28;19917;-69
2022/06/09 01:27:50;;;;;;;;;;;;;;;-142.75;100.00;76458.09;5015094;28;19929;-71
2022/06/09 01:30:18;;;;;;;;;;;;;;;-142.75;100.00;76465.97;5032896;28;20421;-70
2022/06/09 01:32:50;;;;;;;;;;;;;;;-142.75;100.00;76460.06;5032897;28;20011;-71
2022/06/09 01:35:24;;;;;;;;;;;;;;;-142.75;100.00;76464.00;5015022;28;19921;-67
2022/06/09 01:37:52;;;;;;;;;;;;;;;-142.75;100.00;76460.06;5032579;28;19956;-70
2022/06/09 01:40:18;;;;;;;;;;;;;;;-142.75;100.00;76467.94;5032938;28;19923;-71
2022/06/09 01:42:45;;;;;;;;;;;;;;;-142.75;100.00;76467.94;5032778;28;19917;-70
2022/06/09 01:45:11;;;;;;;;;;;;;;;-142.75;100.00;76471.88;5014620;28;19921;-72
2022/06/09 01:47:39;;;;;;;;;;;;;;;-142.75;100.00;76473.84;5032500;28;19974;-69
2022/06/09 01:50:06;;;;;;;;;;;;;;;-142.75;100.00;76467.94;5032172;28;19943;-70
2022/06/09 01:52:32;;;;;;;;;;;;;;;-142.75;100.00;76469.91;5032540;28;19917;-71
2022/06/09 01:54:59;;;;;;;;;;;;;;;-142.75;100.00;76464.00;5014609;28;19936;-71
2022/06/09 01:57:31;;;;;;;;;;;;;;;-142.75;100.00;76465.97;5032468;28;19923;-71
2022/06/09 02:00:02;;;;;;;;;;;;;;;-142.75;100.00;76467.94;5032134;28;19924;-71
2022/06/09 02:02:30;;;;;;;;;;;;;;;-142.75;100.00;76473.84;5032373;28;19924;-70
2022/06/09 02:05:16;;;;;;;;;;;;;;;-142.75;100.00;76475.81;5032108;28;19919;-70
2022/06/09 02:07:42;;;;;;;;;;;;;;;-142.75;100.00;76475.81;5031985;28;20139;-67
2022/06/09 02:10:13;;;;;;;;;;;;;;;-142.75;100.00;76471.88;5031995;28;19917;-71
2022/06/09 02:12:39;;;;;;;;;;;;;;;-142.75;100.00;76479.75;5032079;28;20375;-70
2022/06/09 02:15:05;;;;;;;;;;;;;;;-142.75;100.00;76473.84;5031997;28;19963;-71
2022/06/09 02:17:40;;;;;;;;;;;;;;;-142.75;100.00;76477.78;5014202;28;19917;-69
2022/06/09 02:20:05;;;;;;;;;;;;;;;-142.75;100.00;76473.84;5031731;28;19917;-71
2022/06/09 02:22:30;;;;;;;;;;;;;;;-142.75;100.00;76475.81;5031869;28;20004;-71
2022/06/09 02:24:56;;;;;;;;;;;;;;;-142.75;100.00;76475.81;5031861;28;19917;-71
2022/06/09 02:27:23;;;;;;;;;;;;;;;-142.75;100.00;76475.81;5031036;28;20562;-70
2022/06/09 02:29:48;;;;;;;;;;;;;;;-142.75;100.00;76483.69;5031523;28;19992;-71
2022/06/09 02:32:13;;;;;;;;;;;;;;;-142.75;100.00;76487.63;5014210;28;19968;-69
2022/06/09 02:34:38;;;;;;;;;;;;;;;-142.75;100.00;76495.50;5031589;28;20004;-71
2022/06/09 02:37:04;;;;;;;;;;;;;;;-142.75;100.00;76485.66;5031850;28;20291;-70
2022/06/09 02:39:29;;;;;;;;;;;;;;;-142.75;100.00;76487.63;5031257;28;19963;-71
2022/06/09 02:41:54;;;;;;;;;;;;;;;-142.75;100.00;76497.47;5013909;28;19917;-68
2022/06/09 02:44:19;;;;;;;;;;;;;;;-142.75;100.00;76491.56;5031387;28;20431;-70
2022/06/09 02:46:44;;;;;;;;;;;;;;;-142.75;100.00;76503.38;5031264;28;19921;-69
2022/06/09 02:49:10;;;;;;;;;;;;;;;-142.75;100.00;76499.44;5031177;28;19923;-70
2022/06/09 02:51:39;;;;;;;;;;;;;;;-142.75;100.00;76497.47;5031416;28;20394;-70
2022/06/09 02:54:05;;;;;;;;;;;;;;;-142.75;100.00;76503.38;5031614;28;20263;-70
2022/06/09 02:56:31;;;;;;;;;;;;;;;-142.75;100.00;76507.31;5030944;28;19924;-70
2022/06/09 02:58:57;;;;;;;;;;;;;;;-142.75;100.00;76507.31;5030908;28;19917;-71
2022/06/09 03:01:23;;;;;;;;;;;;;;;-142.75;100.00;76507.31;5031364;28;20010;-71
2022/06/09 03:03:48;;;;;;;;;;;;;;;-142.75;100.00;76519.13;5031200;28;20409;-72
2022/06/09 03:06:13;;;;;;;;;;;;;;;-142.75;100.00;76519.13;5031141;28;19928;-69
2022/06/09 03:08:38;;;;;;;;;;;;;;;-142.75;100.00;76521.09;5031053;28;19917;-70
2022/06/09 03:11:04;;;;;;;;;;;;;;;-142.75;100.00;76521.09;5031189;28;19932;-71
2022/06/09 03:13:29;;;;;;;;;;;;;;;-142.75;100.00;76525.03;5017787;28;19924;-69
2022/06/09 03:15:54;;;;;;;;;;;;;;;-142.75;100.00;76527.00;5011393;28;20342;-71
2022/06/09 03:18:20;;;;;;;;;;;;;;;-142.75;100.00;76519.13;5011278;28;19917;-67
2022/06/09 03:20:46;;;;;;;;;;;;;;;-142.75;100.00;76521.09;5011348;28;20016;-71
2022/06/09 03:23:11;;;;;;;;;;;;;;;-142.75;100.00;76532.88;5011479;28;20295;-71
2022/06/09 03:25:37;;;;;;;;;;;;;;;-142.75;100.00;76544.69;4993655;28;19925;-70
2022/06/09 03:28:02;;;;;;;;;;;;;;;-142.75;100.00;76544.69;5011030;28;19921;-71
2022/06/09 03:30:28;;;;;;;;;;;;;;;-142.75;100.00;76546.66;5011348;28;20367;-71
2022/06/09 03:32:53;;;;;;;;;;;;;;;-142.75;100.00;76554.53;5011378;28;19924;-71
2022/06/09 03:35:18;;;;;;;;;;;;;;;-142.75;100.00;76570.28;5011432;28;19933;-71
2022/06/09 03:37:44;;;;;;;;;;;;;;;-142.75;100.00;76584.06;4993442;28;19976;-70
2022/06/09 03:40:11;;;;;;;;;;;;;;;-142.75;100.00;76588.00;5011206;28;20427;-71
2022/06/09 03:42:37;;;;;;;;;;;;;;;-142.75;100.00;76591.94;5011081;28;20279;-70
2022/06/09 03:45:02;;;;;;;;;;;;;;;-142.75;100.00;76593.91;5009649;28;19924;-71
2022/06/09 03:47:27;;;;;;;;;;;;;;;-142.75;100.00;76605.72;5011014;28;19922;-71
2022/06/09 03:49:52;;;;;;;;;;;;;;;-142.75;100.00;76609.66;4993355;28;20457;-69
2022/06/09 03:52:18;;;;;;;;;;;;;;;-142.75;100.00;76617.53;5011159;28;19956;-69
2022/06/09 03:54:43;;;;;;;;;;;;;;;-142.75;100.00;76615.56;4993429;28;19917;-70
2022/06/09 03:57:09;;;;;;;;;;;;;;;-142.75;100.00;76617.53;5011051;28;19917;-71
2022/06/09 03:59:34;;;;;;;;;;;;;;;-142.75;100.00;76615.56;5010782;28;19960;-70
2022/06/09 04:01:59;;;;;;;;;;;;;;;-142.75;100.00;76613.59;4993441;28;19918;-70
2022/06/09 04:04:24;;;;;;;;;;;;;;;-142.75;100.00;76625.41;5010985;28;19918;-71
2022/06/09 04:06:50;;;;;;;;;;;;;;;-142.75;100.00;76617.53;5010897;28;19921;-70
2022/06/09 04:09:15;;;;;;;;;;;;;;;-142.75;100.00;76621.47;4996807;28;19932;-70
2022/06/09 04:11:41;;;;;;;;;;;;;;;-142.75;100.00;76621.47;5014527;28;20016;-69
2022/06/09 04:14:06;;;;;;;;;;;;;;;-142.75;100.00;76623.44;5014640;28;19922;-70
2022/06/09 04:16:33;;;;;;;;;;;;;;;-142.75;100.00;76629.34;5013877;28;19928;-70
2022/06/09 04:19:00;;;;;;;;;;;;;;;-142.75;100.00;76633.28;5014288;28;19923;-71
2022/06/09 04:21:26;;;;;;;;;;;;;;;-142.75;100.00;76633.28;5014511;28;19917;-70
2022/06/09 04:23:51;;;;;;;;;;;;;;;-142.75;100.00;76625.41;5014661;28;20004;-67
2022/06/09 04:26:18;;;;;;;;;;;;;;;-142.75;100.00;76637.22;5014084;28;19921;-70
2022/06/09 04:28:43;;;;;;;;;;;;;;;-142.75;100.00;76629.34;5013994;28;20375;-70
2022/06/09 04:31:09;;;;;;;;;;;;;;;-142.75;100.00;76625.41;5014215;28;19960;-70
2022/06/09 04:33:34;;;;;;;;;;;;;;;-142.75;100.00;76623.44;5014326;28;19917;-68
2022/06/09 04:36:00;;;;;;;;;;;;;;;-142.75;100.00;76629.34;5014085;28;19925;-70
2022/06/09 04:38:25;;;;;;;;;;;;;;;-142.75;100.00;76639.19;5013829;28;20378;-71
2022/06/09 04:40:50;;;;;;;;;;;;;;;-142.75;100.00;76635.25;5014015;28;19917;-69
2022/06/09 04:43:15;;;;;;;;;;;;;;;-142.75;100.00;76629.34;4996468;28;19944;-71
2022/06/09 04:45:41;;;;;;;;;;;;;;;-142.75;100.00;76623.44;5044813;23;19965;-66
2022/06/09 04:48:07;;;;;;;;;;;;;;;-142.75;100.00;76629.34;5051941;28;19920;-66
2022/06/09 04:50:32;;;;;;;;;;;;;;;-142.75;100.00;76627.38;5053217;28;19917;-66
2022/06/09 04:52:57;;;;;;;;;;;;;;;-142.75;100.00;76633.28;5052509;28;20378;-66
2022/06/09 04:55:23;;;;;;;;;;;;;;;-142.75;100.00;76647.06;5053802;28;19948;-66
2022/06/09 04:57:48;;;;;;;;;;;;;;;-142.75;100.00;76652.97;5052203;28;20429;-66
2022/06/09 05:00:14;;;;;;;;;;;;;;;-142.75;100.00;76670.69;5053712;28;19916;-66
2022/06/09 05:02:39;;;;;;;;;;;;;;;-142.75;100.00;76666.75;5053668;28;19928;-66
2022/06/09 05:05:05;;;;;;;;;;;;;;;-142.75;100.00;76668.72;5053584;28;20336;-66
2022/06/09 05:07:31;;;;;;;;;;;;;;;-142.75;100.00;76676.59;5052309;28;19968;-66
2022/06/09 05:09:56;;;;;;;;;;;;;;;-142.75;100.00;76688.41;5032018;28;20331;-66
2022/06/09 05:12:22;;;;;;;;;;;;;;;-142.75;100.00;76696.28;5033501;28;19972;-66
2022/06/09 05:14:48;;;;;;;;;;;;;;;-142.75;100.00;76698.25;5033433;28;19917;-66
2022/06/09 05:17:13;;;;;;;;;;;;;;;-142.75;100.00;76706.13;5044268;28;19917;-66
2022/06/09 05:19:38;;;;;;;;;;;;;;;-142.75;100.00;76706.13;5053037;28;19924;-66
2022/06/09 05:22:04;;;;;;;;;;;;;;;-142.75;100.00;76704.16;5053462;28;19923;-67
2022/06/09 05:24:29;;;;;;;;;;;;;;;-142.75;100.00;76714.00;5034882;28;20012;-67
2022/06/09 05:26:54;;;;;;;;;;;;;;;-142.75;100.00;76727.78;5033055;28;19950;-67
2022/06/09 05:29:19;;;;;;;;;;;;;;;-142.75;100.00;76739.59;5032948;28;20310;-67
2022/06/09 05:31:44;;;;;;;;;;;;;;;-142.75;100.00;76739.59;5033252;28;19917;-67
2022/06/09 05:34:10;;;;;;;;;;;;;;;-142.75;100.00;76741.56;5033115;28;19921;-67
2022/06/09 05:36:35;;;;;;;;;;;;;;;-142.75;100.00;76745.50;5031579;28;19964;-67
2022/06/09 05:47:12;;;;;;;;;;;;;;;-142.75;100.00;76773.06;5052465;28;19991;-67
2022/06/09 05:49:37;;;;;;;;;;;;;;;-142.75;100.00;76765.19;5051204;28;19945;-66
2022/06/09 05:52:03;;;;;;;;;;;;;;;-142.75;100.00;76767.16;5051703;28;19920;-66
2022/06/09 05:54:28;;;;;;;;;;;;;;;-142.75;100.00;76771.09;5051470;28;19924;-66
2022/06/09 05:56:54;;;;;;;;;;;;;;;-142.75;100.00;76771.09;5050386;28;19964;-67
2022/06/09 05:59:20;;;;;;;;;;;;;;;-142.75;100.00;76778.97;5051208;28;19923;-66
2022/06/09 06:01:45;;;;;;;;;;;;;;;-142.75;100.00;76763.22;5051657;28;19921;-66
2022/06/09 06:04:11;;;;;;;;;;;;;;;-142.75;100.00;76765.19;5051294;28;20340;-66
2022/06/09 06:06:36;;;;;;;;;;;;;;;-142.75;100.00;76763.22;5051231;28;19936;-67
2022/06/09 06:09:01;;;;;;;;;;;;;;;-142.75;100.00;76759.28;5051372;28;19924;-66
2022/06/09 06:11:27;;;;;;;;;;;;;;;-142.75;100.00;76753.38;5051434;28;20015;-66
2022/06/09 06:13:54;;;;;;;;;;;;;;;-142.75;100.00;76753.38;5051136;28;19956;-66
2022/06/09 06:16:20;;;;;;;;;;;;;;;-142.75;100.00;76763.22;5051453;28;20286;-66
2022/06/09 06:18:45;;;;;;;;;;;;;;;-142.75;100.00;76759.28;5050535;28;19921;-67
2022/06/09 06:21:10;;;;;;;;;;;;;;;-142.75;100.00;76759.28;5051292;28;19928;-66
2022/06/09 06:23:35;;;;;;;;;;;;;;;-142.75;100.00;76775.03;5051116;28;19924;-66
2022/06/09 06:26:01;;;;;;;;;;;;;;;-142.75;100.00;76778.97;5051018;28;19971;-67
2022/06/09 06:28:26;;;;;;;;;;;;;;;-142.75;100.00;76777.00;5050829;28;20011;-67
2022/06/09 06:30:52;;;;;;;;;;;;;;;-142.75;100.00;76788.81;5050252;28;19921;-67
2022/06/09 06:33:17;;;;;;;;;;;;;;;-142.75;100.00;76802.56;5050819;28;20474;-67
2022/06/09 06:35:43;;;;;;;;;;;;;;;-142.75;100.00;76804.53;5049378;28;19924;-67
2022/06/09 06:38:08;;;;;;;;;;;;;;;-142.75;100.00;76812.41;5049483;28;19952;-67
2022/06/09 06:40:34;;;;;;;;;;;;;;;-142.75;100.00;76798.66;5050927;28;19951;-66
2022/06/09 06:42:59;;;;;;;;;;;;;;;-142.75;100.00;76804.53;5050859;28;19917;-66
2022/06/09 06:45:25;;;;;;;;;;;;;;;-142.75;100.00;76800.63;5050204;28;19916;-67
2022/06/09 06:47:51;;;;;;;;;;;;;;;-142.75;100.00;76792.75;5050357;28;20367;-67
2022/06/09 06:50:16;;;;;;;;;;;;;;;-142.75;100.00;76788.81;5049958;28;19960;-67
2022/06/09 06:52:41;;;;;;;;;;;;;;;-142.75;100.00;76790.78;5050580;28;19975;-67
2022/06/09 06:55:08;;;;;;;;;;;;;;;-142.75;100.00;76788.81;5050615;28;21261;-67
2022/06/09 06:57:33;;;;;;;;;;;;;;;-142.75;100.00;76778.97;5050606;28;19970;-66
2022/06/09 07:00:00;;;;;;;;;;;;;;;-142.75;100.00;76775.03;5050813;28;20325;-67
2022/06/09 07:02:25;;;;;;;;;;;;;;;-142.75;100.00;76771.09;5051973;28;19916;-67
2022/06/09 07:04:50;;;;;;;;;;;;;;;-142.75;100.00;76761.25;5050428;28;20408;-66
2022/06/09 07:07:15;;;;;;;;;;;;;;;-142.75;100.00;76751.41;5051141;28;19921;-66
2022/06/09 07:09:40;;;;;;;;;;;;;;;-142.75;100.00;76749.44;5051029;28;19971;-67
2022/06/09 07:12:06;;;;;;;;;;;;;;;-142.75;100.00;76749.44;5051030;28;20010;-67
2022/06/09 07:14:33;;;;;;;;;;;;;;;-142.75;100.00;76731.72;5051142;28;19917;-66
2022/06/09 07:16:59;;;;;;;;;;;;;;;-142.75;100.00;76719.91;5050967;28;19939;-67
2022/06/09 07:19:24;;;;;;;;;;;;;;;-142.75;100.00;76714.00;5050826;28;20370;-66
2022/06/09 07:21:49;;;;;;;;;;;;;;;-142.75;100.00;76708.09;5051069;28;20363;-66
2022/06/09 07:24:14;;;;;;;;;;;;;;;-142.75;100.00;76698.25;5051025;28;19917;-67
2022/06/09 07:26:39;;;;;;;;;;;;;;;-142.75;100.00;76692.34;5050996;28;19925;-67
2022/06/09 07:29:05;;;;;;;;;;;;;;;-142.75;100.00;76692.34;5050785;28;19917;-66
2022/06/09 07:31:30;;;;;;;;;;;;;;;-142.75;100.00;76692.34;5051086;28;19921;-67
2022/06/09 07:33:55;;;;;;;;;;;;;;;-142.75;100.00;76680.53;5049482;28;20286;-66
2022/06/09 07:36:22;;;;;;;;;;;;;;;-142.75;100.00;76664.78;5050972;28;20396;-67
2022/06/09 07:38:48;;;;;;;;;;;;;;;-142.75;100.00;76660.84;5050604;28;19916;-66
2022/06/09 07:41:13;;;;;;;;;;;;;;;-142.75;100.00;76641.16;5051680;28;19917;-67
2022/06/09 07:43:39;;;;;;;;;;;;;;;-142.75;100.00;76641.16;5054850;28;19967;-67
2022/06/09 07:46:04;;;;;;;;;;;;;;;-142.75;100.00;76637.22;5054702;28;19920;-66
2022/06/09 07:48:30;;;;;;;;;;;;;;;-142.75;100.00;76633.28;5054592;28;19924;-67
2022/06/09 07:50:55;;;;;;;;;;;;;;;-142.75;100.00;76627.38;5054719;28;19917;-67
2022/06/09 07:53:21;;;;;;;;;;;;;;;-142.75;100.00;76605.72;5054768;28;19928;-67
2022/06/09 07:55:48;;;;;;;;;;;;;;;-142.75;100.00;76550.59;5054544;28;20007;-67
2022/06/09 07:58:13;;;;;;;;;;;;;;;-142.75;100.00;76521.09;5054496;28;19917;-66
2022/06/09 08:00:40;;;;;;;;;;;;;;;-142.75;100.00;76497.47;5054628;28;20401;-66
2022/06/09 08:03:05;;;;;;;;;;;;;;;-142.75;100.00;76487.63;5054509;28;19924;-67
2022/06/09 08:05:31;;;;;;;;;;;;;;;-142.75;100.00;76483.69;5054474;28;19917;-66
2022/06/09 08:07:57;;;;;;;;;;;;;;;-142.75;100.00;76460.06;5054204;28;19966;-66
2022/06/09 08:10:23;;;;;;;;;;;;;;;-142.75;100.00;76428.56;5054382;28;19972;-67
2022/06/09 08:12:54;;;;;;;;;;;;;;;-142.75;100.00;76401.00;5054473;28;20341;-67
2022/06/09 08:15:19;;;;;;;;;;;;;;;-142.75;100.00;76381.31;5054409;28;19960;-67
2022/06/09 08:17:44;;;;;;;;;;;;;;;-142.75;100.00;76355.72;5054097;28;19917;-66
2022/06/09 08:20:10;;;;;;;;;;;;;;;-142.75;100.00;76316.38;5054198;28;19924;-67
2022/06/09 08:22:40;;;;;;;;;;;;;;;-142.75;100.00;76326.22;5054222;28;20019;-67
2022/06/09 08:25:07;;;;;;;;;;;;;;;-142.75;100.00;76387.22;5054225;28;20008;-66
2022/06/09 08:27:33;;;;;;;;;;;;;;;-142.75;100.00;76436.44;5054020;28;19920;-67
2022/06/09 08:29:58;;;;;;;;;;;;;;;-142.75;100.00;76414.78;5053909;28;19932;-66
2022/06/09 08:32:23;;;;;;;;;;;;;;;-142.75;100.00;76363.59;5054235;28;19943;-67
2022/06/09 08:34:48;;;;;;;;;;;;;;;-142.75;100.00;76322.28;5054533;28;19917;-67
2022/06/09 08:37:13;;;;;;;;;;;;;;;-142.75;100.00;76286.84;5054229;28;19917;-67
2022/06/09 08:39:38;;;;;;;;;;;;;;;-142.75;100.00;76269.13;5052383;28;19990;-67
2022/06/09 08:42:12;;;;;;;;;;;;;;;-142.75;100.00;76265.19;5053868;28;19925;-67
2022/06/09 08:44:55;;;;;;;;;;;;;;;-142.75;100.00;76239.59;5053764;28;19917;-67
2022/06/09 08:47:36;;;;;;;;;;;;;;;-142.75;100.00;76239.59;5053591;28;20074;-67
2022/06/09 08:50:01;;;;;;;;;;;;;;;-142.75;100.00;76251.41;5053368;28;19920;-67
2022/06/09 08:52:29;;;;;;;;;;;;;;;-142.75;100.00;76233.69;5053634;28;19921;-67
2022/06/09 08:54:56;;;;;;;;;;;;;;;-142.75;100.00;76204.16;5053152;28;19940;-66
2022/06/09 08:57:27;;;;;;;;;;;;;;;-142.75;100.00;76190.41;5053300;28;19924;-67
2022/06/09 08:59:56;;;;;;;;;;;;;;;-142.75;100.00;76200.25;5053327;28;20350;-67
2022/06/09 09:02:31;;;;;;;;;;;;;;;-142.75;100.00;76168.75;5053536;28;20390;-67
2022/06/09 09:05:07;;;;;;;;;;;;;;;-142.75;100.00;76156.94;5053550;28;19917;-67
2022/06/09 09:07:35;;;;;;;;;;;;;;;-142.75;100.00;76200.25;5053313;28;19921;-67
2022/06/09 09:10:07;;;;;;;;;;;;;;;-142.75;100.00;76208.09;5052949;28;19917;-67
2022/06/09 09:12:41;;;;;;;;;;;;;;;-142.75;100.00;76192.38;5053191;28;19916;-67
2022/06/09 09:15:35;;;;;;;;;;;;;;;-142.75;100.00;76172.69;5053274;28;19993;-67
2022/06/09 09:18:01;;;;;;;;;;;;;;;-142.75;100.00;76149.06;5043503;28;19927;-67
2022/06/09 09:20:32;;;;;;;;;;;;;;;-142.75;100.00;76119.53;5053031;28;20306;-67
2022/06/09 09:23:06;;;;;;;;;;;;;;;-142.75;100.00;76078.19;5053151;28;20007;-67
2022/06/09 09:25:50;;;;;;;;;;;;;;;-142.75;100.00;76074.25;5053052;28;19917;-67
2022/06/09 09:28:17;;;;;;;;;;;;;;;-142.75;100.00;76050.66;5052563;28;20277;-68
2022/06/09 09:30:45;;;;;;;;;;;;;;;-142.75;100.00;76115.59;5052746;28;20382;-66
2022/06/09 09:33:16;;;;;;;;;;;;;;;-142.75;100.00;76111.66;5052777;28;20409;-66
2022/06/09 09:35:43;;;;;;;;;;;;;;;-142.75;100.00;76121.50;5052665;28;20468;-67
2022/06/09 09:38:09;;;;;;;;;;;;;;;-142.75;100.00;76097.88;5052512;28;19921;-67
2022/06/09 09:40:39;;;;;;;;;;;;;;;-142.75;100.00;76070.34;5052555;28;19917;-67
2022/06/09 09:43:25;;;;;;;;;;;;;;;-142.75;100.00;76030.97;5052478;28;20341;-67
2022/06/09 09:45:54;;;;;;;;;;;;;;;-142.75;100.00;76009.31;5050903;28;20551;-67
2022/06/09 09:48:20;;;;;;;;;;;;;;;-142.75;100.00;75977.81;5052525;28;19924;-67
2022/06/09 09:50:51;;;;;;;;;;;;;;;-142.75;100.00;75964.03;5052450;28;19917;-67
2022/06/09 09:53:19;;;;;;;;;;;;;;;-142.75;100.00;76042.78;5051324;28;19944;-66
2022/06/09 09:55:59;;;;;;;;;;;;;;;-142.75;100.00;76064.44;5051087;28;19943;-68
2022/06/09 09:58:39;;;;;;;;;;;;;;;-142.75;100.00;76121.50;5052376;28;19920;-67
2022/06/09 10:01:24;;;;;;;;;;;;;;;-142.75;100.00;76109.69;5052335;28;19917;-67
2022/06/09 10:09:30;;;;;;;;;;;;;;;-142.75;100.00;76058.53;5051939;28;20329;-67
2022/06/09 10:11:59;;;;;;;;;;;;;;;-142.75;100.00;76019.16;5052082;28;19916;-66
2022/06/09 10:14:43;;;;;;;;;;;;;;;-142.75;100.00;75999.47;5051930;28;19917;-67
2022/06/09 10:17:19;;;;;;;;;;;;;;;-142.75;100.00;76062.47;5051772;28;19924;-68
2022/06/09 10:19:48;;;;;;;;;;;;;;;-142.75;100.00;76021.13;5051844;28;19923;-67
2022/06/09 10:22:19;;;;;;;;;;;;;;;-142.75;100.00;75997.50;5051955;28;20425;-66
2022/06/09 10:24:48;;;;;;;;;;;;;;;-142.75;100.00;76046.72;5051724;28;19923;-67
2022/06/09 10:27:15;;;;;;;;;;;;;;;-142.75;100.00;76019.16;5051676;28;19927;-67
2022/06/09 10:29:50;;;;;;;;;;;;;;;-142.75;100.00;75979.78;5051664;28;20147;-67
2022/06/09 10:32:15;;;;;;;;;;;;;;;-142.75;100.00;75969.94;5051685;28;19932;-67
2022/06/09 10:35:00;;;;;;;;;;;;;;;-142.75;100.00;76029.00;5051801;28;19917;-68
2022/06/09 10:37:38;;;;;;;;;;;;;;;-142.75;100.00;76023.09;5051635;28;20292;-67
2022/06/09 10:40:06;;;;;;;;;;;;;;;-142.75;100.00;76074.25;5051402;28;19916;-67
2022/06/09 10:42:52;;;;;;;;;;;;;;;-142.75;100.00;76133.31;5045655;28;19916;-67
2022/06/09 10:57:46;;;;;;;;;;;;;;;-142.75;100.00;76048.69;5010399;28;19925;-72
2022/06/09 11:00:14;;;;;;;;;;;;;;;-142.75;100.00;76101.81;5009308;28;19917;-72
2022/06/09 11:02:43;;;;;;;;;;;;;;;-142.75;100.00;76078.19;5011004;28;19925;-72
2022/06/09 11:05:13;;;;;;;;;;;;;;;-142.75;100.00;76088.03;5029680;28;19921;-72
2022/06/09 11:07:50;;;;;;;;;;;;;;;-142.75;100.00;76103.78;5030363;28;19932;-73
2022/06/09 11:10:21;;;;;;;;;;;;;;;-142.75;100.00;76113.63;5030606;28;19925;-72
2022/06/09 11:13:02;;;;;;;;;;;;;;;-142.75;100.00;76145.13;5030415;28;20448;-72
2022/06/09 11:15:43;;;;;;;;;;;;;;;-142.75;100.00;76186.47;5030474;28;19924;-72
2022/06/09 11:18:17;;;;;;;;;;;;;;;-142.75;100.00;76192.38;5031174;28;19917;-72
2022/06/09 11:20:54;;;;;;;;;;;;;;;-142.75;100.00;76215.97;5031078;28;19917;-73
2022/06/09 11:23:38;;;;;;;;;;;;;;;-142.75;100.00;76221.88;5031210;28;20294;-72
2022/06/09 11:26:11;;;;;;;;;;;;;;;-142.75;100.00;76259.28;5030925;28;19937;-73
2022/06/09 11:28:45;;;;;;;;;;;;;;;-142.75;100.00;76269.13;5030983;28;19924;-72
2022/06/09 11:31:23;;;;;;;;;;;;;;;-142.75;100.00;76257.31;5029682;28;19927;-73
2022/06/09 11:33:55;;;;;;;;;;;;;;;-142.75;100.00;76267.16;5031138;28;19921;-73
2022/06/09 11:36:28;;;;;;;;;;;;;;;-142.75;100.00;76290.78;5030951;28;19917;-71
2022/06/09 11:39:03;;;;;;;;;;;;;;;-142.75;100.00;76306.53;5030859;28;19962;-71
2022/06/09 11:41:35;;;;;;;;;;;;;;;-142.75;100.00;76306.53;5031040;28;20012;-72
2022/06/09 11:44:11;;;;;;;;;;;;;;;-142.75;100.00;76341.97;5029506;28;19939;-73
2022/06/09 11:46:38;;;;;;;;;;;;;;;-142.75;100.00;76290.78;5030584;28;20015;-71
2022/06/09 11:49:05;;;;;;;;;;;;;;;-142.75;100.00;76231.72;5030534;28;20044;-72
2022/06/09 11:51:33;;;;;;;;;;;;;;;-142.75;100.00;76253.38;5030872;28;20298;-71
2022/06/09 11:54:00;;;;;;;;;;;;;;;-142.75;100.00;76282.91;5030890;28;19929;-72
2022/06/09 11:56:36;;;;;;;;;;;;;;;-142.75;100.00;76316.38;5020201;28;20413;-71
2022/06/09 11:59:04;;;;;;;;;;;;;;;-142.75;100.00;76322.28;5027714;28;19921;-73
2022/06/09 12:01:32;;;;;;;;;;;;;;;-142.75;100.00;76326.22;5030606;28;19924;-72
2022/06/09 12:04:02;;;;;;;;;;;;;;;-142.75;100.00;76363.59;5014027;28;19948;-70
2022/06/09 12:06:42;;;;;;;;;;;;;;;-142.75;100.00;76294.72;5023022;28;20053;-69
2022/06/09 12:09:11;;;;;;;;;;;;;;;-142.75;100.00;76269.13;5010304;28;19973;-70
2022/06/09 12:11:51;;;;;;;;;;;;;;;-142.75;100.00;76306.53;5009779;28;20448;-71
2022/06/09 12:14:28;;;;;;;;;;;;;;;-142.75;100.00;76326.22;5030480;28;19921;-72
2022/06/09 12:17:00;;;;;;;;;;;;;;;-142.75;100.00;76338.03;5030426;28;19995;-70
2022/06/09 12:19:27;;;;;;;;;;;;;;;-142.75;100.00;76353.78;5030129;28;20091;-72
2022/06/09 12:21:55;;;;;;;;;;;;;;;-142.75;100.00;76351.81;5030305;28;19917;-70
2022/06/09 12:24:30;;;;;;;;;;;;;;;-142.75;100.00;76334.09;5030253;28;19929;-70
2022/06/09 12:27:01;;;;;;;;;;;;;;;-142.75;100.00;76338.03;5030204;28;19925;-69
2022/06/09 12:29:36;;;;;;;;;;;;;;;-142.75;100.00;76347.84;5030467;28;19921;-69
2022/06/09 12:32:10;;;;;;;;;;;;;;;-142.75;100.00;76296.69;5033927;28;19924;-68
2022/06/09 12:34:39;;;;;;;;;;;;;;;-142.75;100.00;76257.31;5032654;28;19929;-69
2022/06/09 12:37:05;;;;;;;;;;;;;;;-142.75;100.00;76221.88;5015148;28;19917;-71
2022/06/09 12:39:35;;;;;;;;;;;;;;;-142.75;100.00;76188.44;5013785;28;19924;-69
2022/06/09 12:42:04;;;;;;;;;;;;;;;-142.75;100.00;76172.69;5033381;28;19924;-69
2022/06/09 12:44:29;;;;;;;;;;;;;;;-142.75;100.00;76212.03;5032441;28;19917;-70
2022/06/09 12:46:56;;;;;;;;;;;;;;;-142.75;100.00;76219.91;5033276;28;19925;-72
2022/06/09 12:49:23;;;;;;;;;;;;;;;-142.75;100.00;76217.94;5033039;28;19978;-71